sensor_id;sensor_type;location;lat;lon;timestamp;pressure;altitude;pressure_sealevel;temperature;humidity
49044;BME280;34860;48.066;14.124;2022-12-24T00:01:40;96009.88;;;9.30;79.82
49044;BME280;34860;48.066;14.124;2022-12-24T00:04:28;96003.44;;;9.33;79.72
49044;BME280;34860;48.066;14.124;2022-12-24T00:07:17;96003.88;;;9.31;79.71
49044;BME280;34860;48.066;14.124;2022-12-24T00:10:07;96015.75;;;9.32;79.62
49044;BME280;34860;48.066;14.124;2022-12-24T00:12:55;96014.97;;;9.31;79.77
49044;BME280;34860;48.066;14.124;2022-12-24T00:15:44;96014.22;;;9.31;79.81
49044;BME280;34860;48.066;14.124;2022-12-24T00:18:32;96025.31;;;9.31;79.76
49044;BME280;34860;48.066;14.124;2022-12-24T00:21:22;96024.06;;;9.32;79.81
49044;BME280;34860;48.066;14.124;2022-12-24T00:24:10;96035.28;;;9.28;79.80
49044;BME280;34860;48.066;14.124;2022-12-24T00:26:59;96038.38;;;9.30;79.87
49044;BME280;34860;48.066;14.124;2022-12-24T00:29:48;96044.84;;;9.27;79.89
49044;BME280;34860;48.066;14.124;2022-12-24T00:32:36;96055.13;;;9.26;79.86
49044;BME280;34860;48.066;14.124;2022-12-24T00:35:24;96038.94;;;9.25;79.91
49044;BME280;34860;48.066;14.124;2022-12-24T00:38:12;96043.91;;;9.30;79.98
49044;BME280;34860;48.066;14.124;2022-12-24T00:41:01;96057.78;;;9.30;79.87
49044;BME280;34860;48.066;14.124;2022-12-24T00:43:51;96042.38;;;9.29;79.98
49044;BME280;34860;48.066;14.124;2022-12-24T00:46:40;96048.25;;;9.31;79.74
49044;BME280;34860;48.066;14.124;2022-12-24T00:49:28;96059.78;;;9.30;79.86
49044;BME280;34860;48.066;14.124;2022-12-24T00:52:16;96060.66;;;9.26;79.93
49044;BME280;34860;48.066;14.124;2022-12-24T00:55:05;96062.69;;;9.26;80.02
49044;BME280;34860;48.066;14.124;2022-12-24T00:57:53;96067.00;;;9.27;79.93
49044;BME280;34860;48.066;14.124;2022-12-24T01:00:43;96047.16;;;9.29;79.89
49044;BME280;34860;48.066;14.124;2022-12-24T01:03:31;96058.56;;;9.31;79.89
49044;BME280;34860;48.066;14.124;2022-12-24T01:06:21;96048.25;;;9.31;79.90
49044;BME280;34860;48.066;14.124;2022-12-24T01:09:09;96053.78;;;9.31;79.88
49044;BME280;34860;48.066;14.124;2022-12-24T01:11:57;96048.25;;;9.31;79.88
49044;BME280;34860;48.066;14.124;2022-12-24T01:14:45;96048.56;;;9.33;80.03
49044;BME280;34860;48.066;14.124;2022-12-24T01:17:36;96053.25;;;9.36;79.96
49044;BME280;34860;48.066;14.124;2022-12-24T01:20:24;96057.56;;;9.37;79.99
49044;BME280;34860;48.066;14.124;2022-12-24T01:23:17;96068.53;;;9.41;79.90
49044;BME280;34860;48.066;14.124;2022-12-24T01:26:05;96065.34;;;9.42;79.80
49044;BME280;34860;48.066;14.124;2022-12-24T01:28:53;96062.44;;;9.46;79.83
49044;BME280;34860;48.066;14.124;2022-12-24T01:31:43;96082.53;;;9.50;79.85
49044;BME280;34860;48.066;14.124;2022-12-24T01:34:32;96082.53;;;9.50;79.84
49044;BME280;34860;48.066;14.124;2022-12-24T01:37:20;96083.22;;;9.54;79.66
49044;BME280;34860;48.066;14.124;2022-12-24T01:40:13;96092.19;;;9.58;79.51
49044;BME280;34860;48.066;14.124;2022-12-24T01:43:21;96085.75;;;9.61;79.49
49044;BME280;34860;48.066;14.124;2022-12-24T01:46:17;96077.28;;;9.65;79.49
49044;BME280;34860;48.066;14.124;2022-12-24T01:49:10;96098.28;;;9.66;79.34
49044;BME280;34860;48.066;14.124;2022-12-24T01:52:04;96080.50;;;9.63;79.34
49044;BME280;34860;48.066;14.124;2022-12-24T01:54:56;96082.19;;;9.61;79.40
49044;BME280;34860;48.066;14.124;2022-12-24T01:57:48;96090.28;;;9.55;79.40
49044;BME280;34860;48.066;14.124;2022-12-24T02:00:38;96072.19;;;9.51;79.43
49044;BME280;34860;48.066;14.124;2022-12-24T02:03:28;96072.75;;;9.45;79.59
49044;BME280;34860;48.066;14.124;2022-12-24T02:06:18;96080.75;;;9.43;79.57
49044;BME280;34860;48.066;14.124;2022-12-24T02:09:08;96079.19;;;9.42;79.62
49044;BME280;34860;48.066;14.124;2022-12-24T02:11:56;96094.75;;;9.40;79.66
49044;BME280;34860;48.066;14.124;2022-12-24T02:14:45;96087.75;;;9.35;79.74
49044;BME280;34860;48.066;14.124;2022-12-24T02:17:38;96098.84;;;9.35;79.69
49044;BME280;34860;48.066;14.124;2022-12-24T02:20:42;96097.16;;;9.38;79.78
49044;BME280;34860;48.066;14.124;2022-12-24T02:23:54;96098.72;;;9.39;79.76
49044;BME280;34860;48.066;14.124;2022-12-24T02:27:04;96115.25;;;9.42;79.53
49044;BME280;34860;48.066;14.124;2022-12-24T02:30:00;96111.16;;;9.47;79.56
49044;BME280;34860;48.066;14.124;2022-12-24T02:33:03;96099.50;;;9.52;79.65
49044;BME280;34860;48.066;14.124;2022-12-24T02:35:59;96100.28;;;9.53;79.47
49044;BME280;34860;48.066;14.124;2022-12-24T02:38:54;96108.63;;;9.53;79.40
49044;BME280;34860;48.066;14.124;2022-12-24T02:41:50;96113.72;;;9.54;79.43
49044;BME280;34860;48.066;14.124;2022-12-24T02:44:55;96120.81;;;9.55;79.51
49044;BME280;34860;48.066;14.124;2022-12-24T02:47:47;96130.25;;;9.58;79.45
49044;BME280;34860;48.066;14.124;2022-12-24T02:50:36;96132.25;;;9.57;79.47
49044;BME280;34860;48.066;14.124;2022-12-24T02:53:24;96134.34;;;9.53;79.46
49044;BME280;34860;48.066;14.124;2022-12-24T02:56:26;96145.78;;;9.55;79.46
49044;BME280;34860;48.066;14.124;2022-12-24T02:59:33;96126.47;;;9.52;79.60
49044;BME280;34860;48.066;14.124;2022-12-24T03:02:27;96137.25;;;9.50;79.57
49044;BME280;34860;48.066;14.124;2022-12-24T03:05:25;96144.00;;;9.49;79.55
49044;BME280;34860;48.066;14.124;2022-12-24T03:08:21;96140.91;;;9.47;79.57
49044;BME280;34860;48.066;14.124;2022-12-24T03:11:12;96145.31;;;9.44;79.38
49044;BME280;34860;48.066;14.124;2022-12-24T03:14:02;96137.00;;;9.44;79.74
49044;BME280;34860;48.066;14.124;2022-12-24T03:16:50;96162.75;;;9.44;79.58
49044;BME280;34860;48.066;14.124;2022-12-24T03:19:38;96153.97;;;9.46;79.49
49044;BME280;34860;48.066;14.124;2022-12-24T03:22:28;96153.53;;;9.48;79.67
49044;BME280;34860;48.066;14.124;2022-12-24T03:25:19;96159.00;;;9.51;79.51
49044;BME280;34860;48.066;14.124;2022-12-24T03:28:12;96164.09;;;9.53;79.42
49044;BME280;34860;48.066;14.124;2022-12-24T03:31:03;96168.63;;;9.47;79.50
49044;BME280;34860;48.066;14.124;2022-12-24T03:33:51;96167.06;;;9.45;79.45
49044;BME280;34860;48.066;14.124;2022-12-24T03:36:39;96169.94;;;9.42;79.54
49044;BME280;34860;48.066;14.124;2022-12-24T03:39:29;96168.06;;;9.39;79.63
49044;BME280;34860;48.066;14.124;2022-12-24T03:42:17;96178.03;;;9.36;79.58
49044;BME280;34860;48.066;14.124;2022-12-24T03:45:06;96178.81;;;9.37;79.57
49044;BME280;34860;48.066;14.124;2022-12-24T03:47:54;96171.28;;;9.37;79.63
49044;BME280;34860;48.066;14.124;2022-12-24T03:50:42;96181.94;;;9.39;79.61
49044;BME280;34860;48.066;14.124;2022-12-24T03:53:30;96178.72;;;9.40;79.49
49044;BME280;34860;48.066;14.124;2022-12-24T03:56:20;96172.72;;;9.42;79.58
49044;BME280;34860;48.066;14.124;2022-12-24T03:59:08;96192.34;;;9.48;79.55
49044;BME280;34860;48.066;14.124;2022-12-24T04:01:56;96198.16;;;9.53;79.41
49044;BME280;34860;48.066;14.124;2022-12-24T04:04:45;96193.63;;;9.59;79.24
49044;BME280;34860;48.066;14.124;2022-12-24T04:07:33;96191.50;;;9.63;79.36
49044;BME280;34860;48.066;14.124;2022-12-24T04:10:21;96183.84;;;9.68;79.33
49044;BME280;34860;48.066;14.124;2022-12-24T04:13:11;96189.84;;;9.66;79.32
49044;BME280;34860;48.066;14.124;2022-12-24T04:16:00;96179.19;;;9.64;79.33
49044;BME280;34860;48.066;14.124;2022-12-24T04:18:49;96206.81;;;9.68;79.30
49044;BME280;34860;48.066;14.124;2022-12-24T04:21:37;96198.03;;;9.70;79.18
49044;BME280;34860;48.066;14.124;2022-12-24T04:24:25;96197.16;;;9.73;79.23
49044;BME280;34860;48.066;14.124;2022-12-24T04:27:13;96209.38;;;9.75;79.20
49044;BME280;34860;48.066;14.124;2022-12-24T04:30:03;96227.94;;;9.78;79.26
49044;BME280;34860;48.066;14.124;2022-12-24T04:32:51;96241.38;;;9.80;79.23
49044;BME280;34860;48.066;14.124;2022-12-24T04:35:39;96248.00;;;9.82;79.20
49044;BME280;34860;48.066;14.124;2022-12-24T04:38:28;96244.34;;;9.86;79.21
49044;BME280;34860;48.066;14.124;2022-12-24T04:41:18;96270.56;;;9.85;79.18
49044;BME280;34860;48.066;14.124;2022-12-24T04:44:09;96280.22;;;9.80;79.22
49044;BME280;34860;48.066;14.124;2022-12-24T04:46:58;96290.94;;;9.65;79.42
49044;BME280;34860;48.066;14.124;2022-12-24T04:49:46;96279.25;;;9.44;79.55
49044;BME280;34860;48.066;14.124;2022-12-24T04:52:34;96278.41;;;9.31;79.75
49044;BME280;34860;48.066;14.124;2022-12-24T04:55:22;96287.00;;;9.20;79.96
49044;BME280;34860;48.066;14.124;2022-12-24T04:58:11;96298.47;;;9.06;80.21
49044;BME280;34860;48.066;14.124;2022-12-24T05:01:02;96301.97;;;8.94;80.08
49044;BME280;34860;48.066;14.124;2022-12-24T05:03:53;96314.53;;;8.82;80.18
49044;BME280;34860;48.066;14.124;2022-12-24T05:06:41;96316.78;;;8.70;80.28
49044;BME280;34860;48.066;14.124;2022-12-24T05:09:29;96330.03;;;8.63;80.20
49044;BME280;34860;48.066;14.124;2022-12-24T05:12:17;96329.78;;;8.57;80.27
49044;BME280;34860;48.066;14.124;2022-12-24T05:15:06;96337.03;;;8.51;80.24
49044;BME280;34860;48.066;14.124;2022-12-24T05:17:54;96333.13;;;8.48;80.32
49044;BME280;34860;48.066;14.124;2022-12-24T05:20:43;96330.03;;;8.46;80.20
49044;BME280;34860;48.066;14.124;2022-12-24T05:23:31;96332.06;;;8.42;80.09
49044;BME280;34860;48.066;14.124;2022-12-24T05:26:39;96335.69;;;8.39;80.15
49044;BME280;34860;48.066;14.124;2022-12-24T05:29:28;96308.44;;;8.37;80.13
49044;BME280;34860;48.066;14.124;2022-12-24T05:32:16;96324.28;;;8.37;80.18
49044;BME280;34860;48.066;14.124;2022-12-24T05:35:04;96315.63;;;8.35;80.07
49044;BME280;34860;48.066;14.124;2022-12-24T05:37:56;96306.56;;;8.34;80.09
49044;BME280;34860;48.066;14.124;2022-12-24T05:40:45;96296.69;;;8.33;79.90
49044;BME280;34860;48.066;14.124;2022-12-24T05:43:33;96305.66;;;8.37;80.10
49044;BME280;34860;48.066;14.124;2022-12-24T05:46:22;96307.66;;;8.37;80.06
49044;BME280;34860;48.066;14.124;2022-12-24T05:49:10;96312.78;;;8.39;79.98
49044;BME280;34860;48.066;14.124;2022-12-24T05:51:58;96312.44;;;8.36;79.89
49044;BME280;34860;48.066;14.124;2022-12-24T05:54:48;96307.66;;;8.37;80.06
49044;BME280;34860;48.066;14.124;2022-12-24T05:57:38;96301.25;;;8.40;80.03
49044;BME280;34860;48.066;14.124;2022-12-24T06:00:26;96307.88;;;8.46;79.87
49044;BME280;34860;48.066;14.124;2022-12-24T06:03:14;96309.34;;;8.51;79.82
49044;BME280;34860;48.066;14.124;2022-12-24T06:06:04;96312.47;;;8.53;79.87
49044;BME280;34860;48.066;14.124;2022-12-24T06:08:54;96319.91;;;8.56;79.86
49044;BME280;34860;48.066;14.124;2022-12-24T06:11:43;96328.91;;;8.60;79.76
49044;BME280;34860;48.066;14.124;2022-12-24T06:14:32;96348.31;;;8.60;79.76
49044;BME280;34860;48.066;14.124;2022-12-24T06:17:19;96401.44;;;8.55;79.82
49044;BME280;34860;48.066;14.124;2022-12-24T06:20:08;96403.81;;;8.36;79.60
49044;BME280;34860;48.066;14.124;2022-12-24T06:22:56;96389.28;;;8.12;80.08
49044;BME280;34860;48.066;14.124;2022-12-24T06:25:44;96380.56;;;7.94;80.46
49044;BME280;34860;48.066;14.124;2022-12-24T06:28:36;96379.56;;;7.84;80.68
49044;BME280;34860;48.066;14.124;2022-12-24T06:31:25;96387.16;;;7.80;80.61
49044;BME280;34860;48.066;14.124;2022-12-24T06:34:13;96381.69;;;7.76;80.69
49044;BME280;34860;48.066;14.124;2022-12-24T06:37:01;96392.41;;;7.74;80.64
49044;BME280;34860;48.066;14.124;2022-12-24T06:39:49;96386.53;;;7.72;80.56
49044;BME280;34860;48.066;14.124;2022-12-24T06:42:37;96393.59;;;7.73;80.71
49044;BME280;34860;48.066;14.124;2022-12-24T06:45:26;96393.19;;;7.75;80.54
49044;BME280;34860;48.066;14.124;2022-12-24T06:48:14;96420.06;;;7.74;80.52
49044;BME280;34860;48.066;14.124;2022-12-24T06:51:03;96396.38;;;7.73;80.54
49044;BME280;34860;48.066;14.124;2022-12-24T06:53:51;96424.97;;;7.67;80.60
49044;BME280;34860;48.066;14.124;2022-12-24T06:56:39;96432.53;;;7.62;80.48
49044;BME280;34860;48.066;14.124;2022-12-24T06:59:27;96402.94;;;7.59;80.57
49044;BME280;34860;48.066;14.124;2022-12-24T07:02:16;96404.25;;;7.55;80.57
49044;BME280;34860;48.066;14.124;2022-12-24T07:05:05;96410.19;;;7.53;80.57
49044;BME280;34860;48.066;14.124;2022-12-24T07:07:54;96430.81;;;7.49;80.65
49044;BME280;34860;48.066;14.124;2022-12-24T07:10:42;96442.66;;;7.49;80.71
49044;BME280;34860;48.066;14.124;2022-12-24T07:13:33;96454.91;;;7.48;80.71
49044;BME280;34860;48.066;14.124;2022-12-24T07:16:21;96453.38;;;7.47;80.62
49044;BME280;34860;48.066;14.124;2022-12-24T07:19:10;96454.97;;;7.44;80.80
49044;BME280;34860;48.066;14.124;2022-12-24T07:21:58;96448.31;;;7.42;80.75
49044;BME280;34860;48.066;14.124;2022-12-24T07:24:46;96460.56;;;7.41;80.73
49044;BME280;34860;48.066;14.124;2022-12-24T07:27:34;96468.88;;;7.41;80.73
49044;BME280;34860;48.066;14.124;2022-12-24T07:30:22;96457.03;;;7.40;80.79
49044;BME280;34860;48.066;14.124;2022-12-24T07:33:10;96474.75;;;7.43;80.70
49044;BME280;34860;48.066;14.124;2022-12-24T07:36:03;96460.56;;;7.41;80.69
49044;BME280;34860;48.066;14.124;2022-12-24T07:38:52;96447.53;;;7.41;80.61
49044;BME280;34860;48.066;14.124;2022-12-24T07:41:40;96458.16;;;7.43;80.74
49044;BME280;34860;48.066;14.124;2022-12-24T07:44:29;96458.94;;;7.43;80.75
49044;BME280;34860;48.066;14.124;2022-12-24T07:47:17;96457.75;;;7.44;80.57
49044;BME280;34860;48.066;14.124;2022-12-24T07:50:06;96459.25;;;7.49;80.58
49044;BME280;34860;48.066;14.124;2022-12-24T07:52:55;96463.50;;;7.54;80.68
49044;BME280;34860;48.066;14.124;2022-12-24T07:55:43;96473.31;;;7.58;80.60
49044;BME280;34860;48.066;14.124;2022-12-24T07:58:31;96477.19;;;7.61;80.59
49044;BME280;34860;48.066;14.124;2022-12-24T08:01:19;96481.88;;;7.64;80.37
49044;BME280;34860;48.066;14.124;2022-12-24T08:04:07;96493.25;;;7.70;80.61
49044;BME280;34860;48.066;14.124;2022-12-24T08:06:55;96511.38;;;7.74;80.57
49044;BME280;34860;48.066;14.124;2022-12-24T08:09:45;96511.66;;;7.80;80.53
49044;BME280;34860;48.066;14.124;2022-12-24T08:12:33;96506.50;;;7.82;80.58
49044;BME280;34860;48.066;14.124;2022-12-24T08:15:20;96504.81;;;7.88;80.52
49044;BME280;34860;48.066;14.124;2022-12-24T08:18:09;96516.16;;;7.94;80.50
49044;BME280;34860;48.066;14.124;2022-12-24T08:20:57;96523.53;;;8.00;80.52
49044;BME280;34860;48.066;14.124;2022-12-24T08:23:48;96521.50;;;8.05;80.42
49044;BME280;34860;48.066;14.124;2022-12-24T08:26:41;96527.31;;;8.10;80.37
49044;BME280;34860;48.066;14.124;2022-12-24T08:29:30;96534.00;;;8.13;80.52
49044;BME280;34860;48.066;14.124;2022-12-24T08:32:23;96530.72;;;8.18;80.36
49044;BME280;34860;48.066;14.124;2022-12-24T08:35:12;96535.75;;;8.23;80.30
49044;BME280;34860;48.066;14.124;2022-12-24T08:38:01;96538.53;;;8.23;80.33
49044;BME280;34860;48.066;14.124;2022-12-24T08:40:51;96544.88;;;8.24;80.34
49044;BME280;34860;48.066;14.124;2022-12-24T08:43:41;96552.38;;;8.23;80.25
49044;BME280;34860;48.066;14.124;2022-12-24T08:46:29;96557.91;;;8.23;80.31
49044;BME280;34860;48.066;14.124;2022-12-24T08:49:17;96551.94;;;8.25;80.32
49044;BME280;34860;48.066;14.124;2022-12-24T08:52:05;96557.91;;;8.23;80.28
49044;BME280;34860;48.066;14.124;2022-12-24T08:54:53;96558.34;;;8.22;80.39
49044;BME280;34860;48.066;14.124;2022-12-24T08:57:41;96572.19;;;8.22;80.36
49044;BME280;34860;48.066;14.124;2022-12-24T09:00:31;96563.09;;;8.21;80.43
49044;BME280;34860;48.066;14.124;2022-12-24T09:03:19;96570.63;;;8.21;80.35
49044;BME280;34860;48.066;14.124;2022-12-24T09:06:13;96563.53;;;8.19;80.34
49044;BME280;34860;48.066;14.124;2022-12-24T09:09:01;96580.13;;;8.19;80.30
49044;BME280;34860;48.066;14.124;2022-12-24T09:11:49;96587.66;;;8.19;80.42
49044;BME280;34860;48.066;14.124;2022-12-24T09:14:38;96590.34;;;8.23;80.36
49044;BME280;34860;48.066;14.124;2022-12-24T09:17:28;96581.97;;;8.26;80.29
49044;BME280;34860;48.066;14.124;2022-12-24T09:20:16;96592.16;;;8.33;80.32
49044;BME280;34860;48.066;14.124;2022-12-24T09:23:05;96607.94;;;8.36;80.26
49044;BME280;34860;48.066;14.124;2022-12-24T09:25:57;96606.53;;;8.24;79.99
49044;BME280;34860;48.066;14.124;2022-12-24T09:28:46;96607.72;;;8.03;80.24
49044;BME280;34860;48.066;14.124;2022-12-24T09:31:34;96607.19;;;7.88;80.53
49044;BME280;34860;48.066;14.124;2022-12-24T09:34:24;96616.78;;;7.80;80.71
49044;BME280;34860;48.066;14.124;2022-12-24T09:37:15;96621.59;;;7.76;80.74
49044;BME280;34860;48.066;14.124;2022-12-24T09:40:04;96629.97;;;7.72;80.83
49044;BME280;34860;48.066;14.124;2022-12-24T09:42:53;96603.13;;;7.69;80.95
49044;BME280;34860;48.066;14.124;2022-12-24T09:45:47;96606.31;;;7.68;80.90
49044;BME280;34860;48.066;14.124;2022-12-24T09:48:39;96598.44;;;7.66;80.85
49044;BME280;34860;48.066;14.124;2022-12-24T09:51:33;96597.63;;;7.66;80.90
49044;BME280;34860;48.066;14.124;2022-12-24T09:54:25;96592.91;;;7.66;80.81
49044;BME280;34860;48.066;14.124;2022-12-24T09:57:23;96602.34;;;7.69;81.01
49044;BME280;34860;48.066;14.124;2022-12-24T10:00:18;96596.75;;;7.72;80.64
49044;BME280;34860;48.066;14.124;2022-12-24T10:03:13;96609.03;;;7.71;80.70
49044;BME280;34860;48.066;14.124;2022-12-24T10:06:08;96611.72;;;7.75;80.86
49044;BME280;34860;48.066;14.124;2022-12-24T10:09:08;96611.25;;;7.80;80.76
49044;BME280;34860;48.066;14.124;2022-12-24T10:12:04;96606.44;;;7.84;80.69
49044;BME280;34860;48.066;14.124;2022-12-24T10:15:00;96619.84;;;7.86;80.76
49044;BME280;34860;48.066;14.124;2022-12-24T10:18:02;96623.72;;;7.92;80.62
49044;BME280;34860;48.066;14.124;2022-12-24T10:21:06;96627.50;;;8.02;80.70
49044;BME280;34860;48.066;14.124;2022-12-24T10:24:05;96627.78;;;8.07;80.57
49044;BME280;34860;48.066;14.124;2022-12-24T10:26:58;96642.00;;;8.09;80.60
49044;BME280;34860;48.066;14.124;2022-12-24T10:29:49;96639.28;;;8.06;80.53
49044;BME280;34860;48.066;14.124;2022-12-24T10:32:40;96625.88;;;8.04;80.66
49044;BME280;34860;48.066;14.124;2022-12-24T10:35:31;96638.44;;;8.09;80.89
49044;BME280;34860;48.066;14.124;2022-12-24T10:38:25;96635.66;;;8.09;80.72
49044;BME280;34860;48.066;14.124;2022-12-24T10:41:15;96642.78;;;8.10;80.85
49044;BME280;34860;48.066;14.124;2022-12-24T10:44:04;96638.81;;;8.11;80.71
49044;BME280;34860;48.066;14.124;2022-12-24T10:46:52;96643.13;;;8.12;80.82
49044;BME280;34860;48.066;14.124;2022-12-24T10:49:44;96642.25;;;8.18;80.72
49044;BME280;34860;48.066;14.124;2022-12-24T10:52:36;96640.97;;;8.23;80.66
49044;BME280;34860;48.066;14.124;2022-12-24T10:55:25;96641.34;;;8.25;80.83
49044;BME280;34860;48.066;14.124;2022-12-24T10:58:17;96642.03;;;8.29;80.75
49044;BME280;34860;48.066;14.124;2022-12-24T11:01:06;96638.84;;;8.31;80.65
49044;BME280;34860;48.066;14.124;2022-12-24T11:03:59;96645.56;;;8.33;80.76
49044;BME280;34860;48.066;14.124;2022-12-24T11:06:53;96649.88;;;8.34;80.79
49044;BME280;34860;48.066;14.124;2022-12-24T11:09:54;96653.84;;;8.33;80.74
49044;BME280;34860;48.066;14.124;2022-12-24T11:12:46;96671.25;;;8.34;80.72
49044;BME280;34860;48.066;14.124;2022-12-24T11:15:49;96680.34;;;8.34;80.83
49044;BME280;34860;48.066;14.124;2022-12-24T11:18:45;96672.81;;;8.35;80.86
49044;BME280;34860;48.066;14.124;2022-12-24T11:21:38;96661.31;;;8.36;80.77
49044;BME280;34860;48.066;14.124;2022-12-24T11:24:29;96639.53;;;8.39;80.75
49044;BME280;34860;48.066;14.124;2022-12-24T11:27:29;96643.84;;;8.40;80.83
49044;BME280;34860;48.066;14.124;2022-12-24T11:30:22;96629.13;;;8.46;80.72
49044;BME280;34860;48.066;14.124;2022-12-24T11:33:17;96639.63;;;8.55;80.70
49044;BME280;34860;48.066;14.124;2022-12-24T11:36:11;96627.66;;;8.62;80.69
49044;BME280;34860;48.066;14.124;2022-12-24T11:38:59;96630.34;;;8.65;80.61
49044;BME280;34860;48.066;14.124;2022-12-24T11:41:48;96636.91;;;8.75;80.73
49044;BME280;34860;48.066;14.124;2022-12-24T11:44:46;96639.09;;;8.84;80.54
49044;BME280;34860;48.066;14.124;2022-12-24T11:51:26;96634.13;;;8.95;80.51
49044;BME280;34860;48.066;14.124;2022-12-24T11:54:18;96633.63;;;9.00;80.51
49044;BME280;34860;48.066;14.124;2022-12-24T11:57:12;96637.81;;;9.08;80.46
49044;BME280;34860;48.066;14.124;2022-12-24T12:00:01;96640.44;;;9.16;80.55
49044;BME280;34860;48.066;14.124;2022-12-24T12:02:50;96628.00;;;9.24;80.41
49044;BME280;34860;48.066;14.124;2022-12-24T12:05:39;96635.50;;;9.23;80.40
49044;BME280;34860;48.066;14.124;2022-12-24T12:08:29;96627.47;;;9.29;80.48
49044;BME280;34860;48.066;14.124;2022-12-24T12:11:17;96632.94;;;9.33;80.50
49044;BME280;34860;48.066;14.124;2022-12-24T12:14:09;96642.41;;;9.35;80.60
49044;BME280;34860;48.066;14.124;2022-12-24T12:17:05;96637.28;;;9.34;80.75
49044;BME280;34860;48.066;14.124;2022-12-24T12:20:03;96648.44;;;9.30;80.65
49044;BME280;34860;48.066;14.124;2022-12-24T12:22:58;96644.47;;;9.31;80.76
49044;BME280;34860;48.066;14.124;2022-12-24T12:25:51;96645.31;;;9.28;80.56
49044;BME280;34860;48.066;14.124;2022-12-24T12:28:45;96645.75;;;9.26;80.73
49044;BME280;34860;48.066;14.124;2022-12-24T12:31:35;96641.06;;;9.23;80.76
49044;BME280;34860;48.066;14.124;2022-12-24T12:34:28;96650.94;;;9.24;80.75
49044;BME280;34860;48.066;14.124;2022-12-24T12:37:23;96645.84;;;9.23;80.60
49044;BME280;34860;48.066;14.124;2022-12-24T12:40:16;96665.25;;;9.23;80.61
49044;BME280;34860;48.066;14.124;2022-12-24T12:43:14;96656.22;;;9.19;80.66
49044;BME280;34860;48.066;14.124;2022-12-24T12:46:12;96658.22;;;9.18;80.50
49044;BME280;34860;48.066;14.124;2022-12-24T12:49:14;96664.59;;;9.15;80.65
49044;BME280;34860;48.066;14.124;2022-12-24T12:52:12;96664.25;;;9.13;80.61
49044;BME280;34860;48.066;14.124;2022-12-24T12:55:07;96661.06;;;9.15;80.49
49044;BME280;34860;48.066;14.124;2022-12-24T12:58:14;96662.00;;;9.08;80.66
49044;BME280;34860;48.066;14.124;2022-12-24T13:01:07;96652.53;;;9.05;80.78
49044;BME280;34860;48.066;14.124;2022-12-24T13:07:37;96647.34;;;9.07;80.79
49044;BME280;34860;48.066;14.124;2022-12-24T13:10:50;96651.34;;;9.06;80.77
49044;BME280;34860;48.066;14.124;2022-12-24T13:13:50;96651.38;;;9.03;80.77
49044;BME280;34860;48.066;14.124;2022-12-24T13:17:11;96653.81;;;9.01;80.83
49044;BME280;34860;48.066;14.124;2022-12-24T13:20:20;96668.41;;;9.05;80.83
49044;BME280;34860;48.066;14.124;2022-12-24T13:23:12;96664.38;;;9.06;80.84
49044;BME280;34860;48.066;14.124;2022-12-24T13:26:09;96677.31;;;9.33;81.14
49044;BME280;34860;48.066;14.124;2022-12-24T13:29:28;96675.19;;;9.40;80.88
49044;BME280;34860;48.066;14.124;2022-12-24T13:32:36;96682.78;;;9.36;80.81
49044;BME280;34860;48.066;14.124;2022-12-24T13:35:27;96678.09;;;9.33;80.81
49044;BME280;34860;48.066;14.124;2022-12-24T13:38:38;96671.44;;;9.31;80.93
49044;BME280;34860;48.066;14.124;2022-12-24T13:44:41;96677.31;;;9.33;80.89
49044;BME280;34860;48.066;14.124;2022-12-24T13:47:29;96685.63;;;9.33;80.78
49044;BME280;34860;48.066;14.124;2022-12-24T13:50:33;96673.34;;;9.34;80.79
49044;BME280;34860;48.066;14.124;2022-12-24T13:53:27;96686.78;;;9.35;80.88
49044;BME280;34860;48.066;14.124;2022-12-24T13:56:24;96683.28;;;9.31;80.89
49044;BME280;34860;48.066;14.124;2022-12-24T13:59:25;96677.06;;;9.27;81.00
49044;BME280;34860;48.066;14.124;2022-12-24T14:02:20;96684.16;;;9.28;80.88
49044;BME280;34860;48.066;14.124;2022-12-24T14:05:17;96689.69;;;9.28;80.82
49044;BME280;34860;48.066;14.124;2022-12-24T14:08:09;96683.81;;;9.26;80.87
49044;BME280;34860;48.066;14.124;2022-12-24T14:11:05;96695.66;;;9.26;80.82
49044;BME280;34860;48.066;14.124;2022-12-24T14:14:09;96697.66;;;9.26;80.91
49044;BME280;34860;48.066;14.124;2022-12-24T14:16:59;96695.66;;;9.26;80.87
49044;BME280;34860;48.066;14.124;2022-12-24T14:19:52;96696.47;;;9.27;81.04
49044;BME280;34860;48.066;14.124;2022-12-24T14:22:44;96698.44;;;9.26;80.87
49044;BME280;34860;48.066;14.124;2022-12-24T14:25:33;96704.41;;;9.25;80.85
49044;BME280;34860;48.066;14.124;2022-12-24T14:28:25;96702.88;;;9.24;80.84
49044;BME280;34860;48.066;14.124;2022-12-24T14:31:17;96707.63;;;9.23;80.90
49044;BME280;34860;48.066;14.124;2022-12-24T14:34:06;96717.59;;;9.21;80.77
49044;BME280;34860;48.066;14.124;2022-12-24T14:36:56;96720.78;;;9.19;80.96
49044;BME280;34860;48.066;14.124;2022-12-24T14:39:47;96720.06;;;9.15;80.89
49044;BME280;34860;48.066;14.124;2022-12-24T14:42:43;96728.44;;;9.12;80.96
49044;BME280;34860;48.066;14.124;2022-12-24T14:45:41;96728.16;;;9.06;80.85
49044;BME280;34860;48.066;14.124;2022-12-24T14:48:38;96723.47;;;9.03;80.85
49044;BME280;34860;48.066;14.124;2022-12-24T14:51:34;96729.06;;;8.99;80.74
49044;BME280;34860;48.066;14.124;2022-12-24T14:54:36;96736.28;;;8.97;81.07
49044;BME280;34860;48.066;14.124;2022-12-24T14:57:25;96738.66;;;8.95;80.88
49044;BME280;34860;48.066;14.124;2022-12-24T15:00:18;96745.34;;;8.97;80.87
49044;BME280;34860;48.066;14.124;2022-12-24T15:03:11;96748.47;;;8.99;80.84
49044;BME280;34860;48.066;14.124;2022-12-24T15:06:02;96751.19;;;9.03;80.69
49044;BME280;34860;48.066;14.124;2022-12-24T15:08:51;96765.41;;;9.05;80.71
49044;BME280;34860;48.066;14.124;2022-12-24T15:11:44;96763.34;;;9.09;80.46
49044;BME280;34860;48.066;14.124;2022-12-24T15:14:40;96771.16;;;9.14;80.47
49044;BME280;34860;48.066;14.124;2022-12-24T15:17:28;96779.44;;;9.18;80.25
49044;BME280;34860;48.066;14.124;2022-12-24T15:20:19;96777.00;;;9.20;80.18